createdAt,value
2019-04-14T00:01:08.987Z,15.83
2019-04-14T00:03:47.782Z,17.67
2019-04-14T00:06:18.597Z,15.30
2019-04-14T00:08:50.145Z,13.63
2019-04-14T00:11:21.478Z,14.83
2019-04-14T00:13:52.436Z,13.83
2019-04-14T00:16:22.873Z,13.27
2019-04-14T00:18:53.513Z,13.57
2019-04-14T00:21:23.954Z,13.50
2019-04-14T00:23:54.526Z,11.77
2019-04-14T00:26:31.623Z,14.03
2019-04-14T00:29:02.657Z,15.47
2019-04-14T00:31:33.336Z,14.63
2019-04-14T00:34:07.925Z,17.17
2019-04-14T00:36:46.553Z,16.70
2019-04-14T00:39:38.195Z,13.30
2019-04-14T00:42:25.637Z,12.13
2019-04-14T00:45:00.470Z,14.03
2019-04-14T00:47:49.827Z,13.47
2019-04-14T00:50:10.258Z,13.53
2019-04-14T00:52:41.533Z,18.07
2019-04-14T00:55:12.054Z,14.53
2019-04-14T00:57:42.547Z,13.07
2019-04-14T01:00:17.253Z,12.63
2019-04-14T01:02:47.186Z,12.87
2019-04-14T01:05:17.760Z,13.13
2019-04-14T01:07:48.591Z,13.13
2019-04-14T01:10:19.251Z,12.70
2019-04-14T01:12:49.842Z,12.33
2019-04-14T01:15:20.268Z,13.10
2019-04-14T01:17:50.752Z,12.97
2019-04-14T01:20:23.159Z,13.77
2019-04-14T01:22:53.670Z,13.13
2019-04-14T01:25:24.107Z,13.57
2019-04-14T01:27:54.599Z,13.73
2019-04-14T01:30:26.202Z,11.87
2019-04-14T01:32:56.742Z,13.90
2019-04-14T01:35:27.613Z,13.10
2019-04-14T01:37:59.347Z,12.87
2019-04-14T01:40:31.465Z,13.87
2019-04-14T01:43:02.382Z,12.13
2019-04-14T01:45:33.891Z,11.77
2019-04-14T01:48:04.549Z,12.40
2019-04-14T01:50:47.965Z,12.60
2019-04-14T01:53:27.755Z,11.80
2019-04-14T01:56:16.535Z,11.90
2019-04-14T01:58:51.229Z,13.10
2019-04-14T02:01:28.201Z,11.73
2019-04-14T02:03:58.706Z,12.33
2019-04-14T02:06:29.143Z,11.83
2019-04-14T02:08:59.631Z,11.90
2019-04-14T02:11:31.279Z,11.47
2019-04-14T02:14:02.057Z,12.57
2019-04-14T02:16:39.527Z,11.87
2019-04-14T02:19:04.819Z,11.73
2019-04-14T02:21:36.597Z,10.70
2019-04-14T02:24:07.320Z,11.60
2019-04-14T02:26:37.767Z,11.10
2019-04-14T02:29:08.208Z,10.37
2019-04-14T02:32:01.488Z,11.07
2019-04-14T02:34:41.667Z,10.53
2019-04-14T02:37:10.655Z,10.57
2019-04-14T02:39:45.987Z,11.17
2019-04-14T02:44:43.987Z,10.83
2019-04-14T02:47:39.133Z,11.00
2019-04-14T02:49:51.226Z,9.57
2019-04-14T02:52:28.259Z,11.43
2019-04-14T02:57:43.071Z,11.27
2019-04-14T02:59:58.831Z,11.27
2019-04-14T03:02:39.891Z,11.63
2019-04-14T03:07:36.306Z,12.13
2019-04-14T03:10:16.401Z,11.23
2019-04-14T03:12:40.705Z,11.67
2019-04-14T03:15:17.050Z,11.43
2019-04-14T03:18:23.999Z,12.53
2019-04-14T03:20:58.417Z,11.00
2019-04-14T03:26:11.781Z,13.23
2019-04-14T03:28:51.659Z,11.90
2019-04-14T03:39:07.996Z,11.20
2019-04-14T03:41:36.729Z,12.40
2019-04-14T03:44:09.848Z,12.67
2019-04-14T03:46:45.059Z,12.37
2019-04-14T03:51:52.525Z,12.43
2019-04-14T03:54:09.712Z,12.30
2019-04-14T03:56:49.058Z,12.10
2019-04-14T03:59:21.696Z,11.73
2019-04-14T04:01:52.888Z,12.70
2019-04-14T04:04:24.870Z,12.30
2019-04-14T04:06:55.934Z,12.93
2019-04-14T04:09:36.798Z,12.03
2019-04-14T04:12:07.547Z,13.23
2019-04-14T04:14:37.929Z,12.87
2019-04-14T04:17:34.271Z,12.80
2019-04-14T04:20:43.480Z,12.93
2019-04-14T04:23:33.497Z,12.13
2019-04-14T04:26:25.893Z,11.00
2019-04-14T04:29:33.722Z,10.80
2019-04-14T04:32:25.393Z,10.97
2019-04-14T04:35:08.578Z,11.20
2019-04-14T04:37:52.038Z,10.60
2019-04-14T04:40:26.812Z,10.97
2019-04-14T04:42:59.110Z,10.97
2019-04-14T04:45:30.084Z,12.57
2019-04-14T04:48:00.585Z,11.50
2019-04-14T04:50:32.393Z,11.60
2019-04-14T04:53:02.981Z,11.20
2019-04-14T04:55:35.082Z,11.57
2019-04-14T04:58:05.735Z,12.00
2019-04-14T05:00:37.276Z,11.50
2019-04-14T05:03:07.967Z,11.77
2019-04-14T05:06:09.120Z,11.17
2019-04-14T05:08:43.994Z,11.00
2019-04-14T05:11:23.064Z,11.40
2019-04-14T05:13:53.921Z,11.27
2019-04-14T05:16:25.953Z,11.33
2019-04-14T05:19:10.095Z,10.97
2019-04-14T05:21:29.894Z,11.40
2019-04-14T05:24:00.676Z,11.10
2019-04-14T05:26:31.194Z,10.23
2019-04-14T05:29:01.704Z,11.90
2019-04-14T05:31:32.149Z,11.47
2019-04-14T05:34:02.613Z,11.53
2019-04-14T05:36:34.422Z,11.00
2019-04-14T05:39:06.839Z,11.57
2019-04-14T05:41:37.547Z,10.93
2019-04-14T05:44:08.093Z,10.63
2019-04-14T05:46:38.530Z,11.13
2019-04-14T05:49:08.965Z,10.93
2019-04-14T05:51:39.460Z,10.80
2019-04-14T05:54:10.049Z,10.80
2019-04-14T05:56:40.766Z,11.17
2019-04-14T05:59:11.420Z,10.47
2019-04-14T06:01:42.112Z,11.20
2019-04-14T06:04:13.895Z,11.27
2019-04-14T06:06:44.394Z,10.53
2019-04-14T06:09:15.161Z,11.07
2019-04-14T06:11:45.627Z,11.80
2019-04-14T06:14:16.114Z,11.20
2019-04-14T06:16:46.553Z,10.20
2019-04-14T06:19:17.326Z,11.50
2019-04-14T06:21:48.335Z,10.63
2019-04-14T06:24:18.769Z,9.73
2019-04-14T06:26:49.206Z,10.67
2019-04-14T06:29:20.006Z,11.23
2019-04-14T06:32:09.382Z,10.53
2019-04-14T06:34:57.748Z,10.03
2019-04-14T06:37:49.884Z,10.97
2019-04-14T06:40:20.811Z,12.07
2019-04-14T06:42:51.248Z,15.80
2019-04-14T06:45:21.981Z,22.87
2019-04-14T06:47:53.292Z,13.23
2019-04-14T06:50:24.087Z,17.27
2019-04-14T06:52:54.536Z,11.40
2019-04-14T06:55:25.158Z,11.17
2019-04-14T06:57:55.916Z,12.77
2019-04-14T07:00:26.694Z,11.63
2019-04-14T07:02:57.942Z,12.03
2019-04-14T07:05:28.381Z,11.57
2019-04-14T07:07:58.814Z,11.73
2019-04-14T07:10:29.322Z,12.40
2019-04-14T07:12:59.761Z,11.20
2019-04-14T07:15:30.200Z,12.07
2019-04-14T07:18:00.679Z,12.27
2019-04-14T07:20:31.115Z,12.97
2019-04-14T07:23:01.897Z,12.80
2019-04-14T07:25:32.407Z,12.17
2019-04-14T07:28:02.855Z,12.43
2019-04-14T07:30:42.863Z,21.30
2019-04-14T07:33:35.062Z,15.40
2019-04-14T07:36:22.955Z,15.33
2019-04-14T07:39:06.474Z,12.40
2019-04-14T07:41:43.885Z,13.13
2019-04-14T07:44:24.434Z,14.67
2019-04-14T07:46:58.692Z,12.77
2019-04-14T07:49:56.994Z,13.20
2019-04-14T07:52:34.719Z,13.07
2019-04-14T07:55:23.116Z,13.10
2019-04-14T07:58:04.227Z,13.80
2019-04-14T08:00:52.011Z,13.10
2019-04-14T08:03:44.306Z,13.40
2019-04-14T08:06:14.746Z,12.43
2019-04-14T08:08:45.191Z,13.33
2019-04-14T08:11:15.695Z,13.20
2019-04-14T08:13:46.501Z,13.30
2019-04-14T08:16:16.950Z,14.30
2019-04-14T08:18:47.499Z,13.73
2019-04-14T08:21:18.310Z,13.10
2019-04-14T08:23:48.747Z,12.87
2019-04-14T08:26:21.014Z,14.00
2019-04-14T08:28:51.460Z,13.03
2019-04-14T08:31:22.278Z,13.03
2019-04-14T08:33:52.866Z,12.80
2019-04-14T08:36:23.306Z,14.40
2019-04-14T08:38:53.757Z,15.47
2019-04-14T08:41:24.613Z,14.83
2019-04-14T08:44:01.928Z,14.80
2019-04-14T08:46:50.607Z,15.40
2019-04-14T08:49:51.988Z,15.67
2019-04-14T08:52:28.283Z,15.10
2019-04-14T08:55:18.099Z,15.80
2019-04-14T08:57:55.312Z,15.43
2019-04-14T09:00:41.655Z,15.93
2019-04-14T09:03:23.559Z,17.20
2019-04-14T09:06:11.846Z,16.33
2019-04-14T09:08:52.894Z,16.93
2019-04-14T09:11:29.629Z,17.90
2019-04-14T09:14:00.122Z,16.90
2019-04-14T09:16:30.569Z,17.50
2019-04-14T09:19:07.407Z,17.30
2019-04-14T09:21:33.621Z,17.60
2019-04-14T09:24:04.171Z,17.60
2019-04-14T09:26:34.648Z,18.00
2019-04-14T09:29:05.134Z,18.23
2019-04-14T09:31:35.974Z,17.50
2019-04-14T09:34:06.445Z,17.77
2019-04-14T09:36:37.327Z,16.87
2019-04-14T09:39:08.697Z,16.77
2019-04-14T09:41:39.169Z,16.77
2019-04-14T09:44:10.621Z,17.93
2019-04-14T09:46:41.058Z,17.97
2019-04-14T09:49:11.499Z,16.80
2019-04-14T09:51:42.381Z,16.50
2019-04-14T09:54:13.307Z,16.90
2019-04-14T09:56:43.750Z,18.07
2019-04-14T09:59:14.590Z,17.37
2019-04-14T10:01:45.225Z,17.33
2019-04-14T10:04:15.694Z,17.43
2019-04-14T10:06:46.219Z,16.93
2019-04-14T10:09:17.023Z,16.70
2019-04-14T10:11:51.150Z,16.97
2019-04-14T10:14:20.149Z,18.03
2019-04-14T10:16:51.082Z,18.87
2019-04-14T10:19:21.530Z,17.43
2019-04-14T10:21:52.037Z,17.43
2019-04-14T10:24:22.762Z,18.27
2019-04-14T10:26:53.598Z,18.37
2019-04-14T10:29:24.762Z,17.73
2019-04-14T10:31:55.670Z,19.23
2019-04-14T10:34:26.848Z,18.30
2019-04-14T10:36:57.339Z,18.23
2019-04-14T10:39:27.802Z,17.53
2019-04-14T10:41:58.541Z,18.80
2019-04-14T10:44:29.038Z,18.07
2019-04-14T10:46:59.858Z,18.10
2019-04-14T10:49:31.483Z,18.40
2019-04-14T10:52:02.990Z,16.67
2019-04-14T10:54:33.503Z,18.40
2019-04-14T10:57:03.937Z,16.70
2019-04-14T10:59:34.426Z,17.60
2019-04-14T11:02:05.258Z,17.27
2019-04-14T11:04:36.098Z,17.13
2019-04-14T11:07:10.050Z,17.70
2019-04-14T11:09:40.585Z,16.93
2019-04-14T11:12:12.158Z,17.27
2019-04-14T11:14:43.944Z,19.03
2019-04-14T11:17:14.390Z,17.00
2019-04-14T11:19:44.840Z,16.67
2019-04-14T11:22:15.322Z,17.80
2019-04-14T11:24:46.085Z,18.43
2019-04-14T11:27:16.862Z,18.43
2019-04-14T11:29:47.767Z,15.33
2019-04-14T11:32:43.077Z,17.70
2019-04-14T11:35:19.111Z,17.03
2019-04-14T11:38:12.076Z,16.57
2019-04-14T11:40:45.578Z,15.63
2019-04-14T11:43:16.016Z,16.27
2019-04-14T11:45:46.834Z,16.47
2019-04-14T11:48:18.335Z,17.80
2019-04-14T11:50:49.163Z,16.90
2019-04-14T11:53:19.650Z,15.63
2019-04-14T11:55:50.498Z,14.57
2019-04-14T11:58:21.009Z,16.53
2019-04-14T12:01:13.523Z,15.03
2019-04-14T12:03:53.824Z,17.03
2019-04-14T12:06:45.296Z,22.60
2019-04-14T12:09:22.060Z,21.10
2019-04-14T12:11:52.741Z,15.70
2019-04-14T12:14:23.268Z,17.43
2019-04-14T12:16:54.214Z,16.50
2019-04-14T12:19:24.700Z,18.47
2019-04-14T12:22:07.411Z,17.93
2019-04-14T12:24:27.730Z,17.63
2019-04-14T12:26:59.914Z,16.67
2019-04-14T12:29:32.467Z,18.10
2019-04-14T12:32:06.294Z,15.90
2019-04-14T12:34:36.795Z,16.37
2019-04-14T12:37:07.233Z,16.37
2019-04-14T12:39:37.728Z,15.43
2019-04-14T12:42:22.308Z,16.93
2019-04-14T12:45:00.942Z,15.43
2019-04-14T12:47:41.879Z,15.90
2019-04-14T12:50:21.034Z,13.67
2019-04-14T12:52:51.500Z,14.13
2019-04-14T12:55:21.950Z,13.83
2019-04-14T12:57:55.508Z,11.63
2019-04-14T13:00:45.194Z,11.37
2019-04-14T13:03:16.105Z,10.30
2019-04-14T13:05:46.611Z,10.33
2019-04-14T13:08:17.048Z,11.93
2019-04-14T13:10:47.564Z,11.60
2019-04-14T13:13:18.018Z,11.77
2019-04-14T13:15:48.755Z,11.30
2019-04-14T13:18:19.238Z,10.90
2019-04-14T13:20:49.688Z,9.27
2019-04-14T13:23:20.801Z,9.57
2019-04-14T13:25:51.645Z,9.60
2019-04-14T13:28:22.095Z,10.70
2019-04-14T13:30:53.150Z,9.60
2019-04-14T13:33:23.957Z,10.90
2019-04-14T13:35:54.790Z,10.10
2019-04-14T13:38:25.830Z,10.07
2019-04-14T13:40:56.326Z,9.20
2019-04-14T13:43:27.063Z,10.43
2019-04-14T13:45:59.824Z,10.60
2019-04-14T13:48:29.730Z,10.93
2019-04-14T13:51:00.178Z,10.77
2019-04-14T13:53:30.617Z,9.73
2019-04-14T13:56:01.118Z,9.80
2019-04-14T13:58:31.933Z,8.83
2019-04-14T14:01:02.678Z,8.33
2019-04-14T14:03:33.799Z,9.53
2019-04-14T14:06:04.629Z,8.70
2019-04-14T14:08:35.057Z,9.30
2019-04-14T14:11:24.647Z,9.03
2019-04-14T14:13:59.913Z,8.17
2019-04-14T14:16:52.378Z,8.83
2019-04-14T14:19:35.340Z,7.73
2019-04-14T14:22:16.017Z,8.67
2019-04-14T14:24:55.029Z,7.90
2019-04-14T14:27:25.868Z,7.33
2019-04-14T14:29:57.321Z,7.23
2019-04-14T14:32:31.138Z,7.47
2019-04-14T14:35:01.584Z,7.77
2019-04-14T14:37:34.117Z,8.50
2019-04-14T14:40:05.340Z,8.20
2019-04-14T14:42:38.048Z,8.43
2019-04-14T14:45:27.202Z,9.47
2019-04-14T14:48:15.278Z,8.53
2019-04-14T14:51:05.027Z,10.27
2019-04-14T14:53:35.956Z,9.37
2019-04-14T14:56:08.172Z,10.27
2019-04-14T14:58:39.246Z,9.13
2019-04-14T15:01:09.979Z,10.63
2019-04-14T15:03:40.451Z,10.57
2019-04-14T15:06:10.936Z,10.10
2019-04-14T15:08:41.725Z,10.00
2019-04-14T15:11:12.192Z,10.80
2019-04-14T15:13:43.491Z,11.63
2019-04-14T15:16:14.747Z,11.40
2019-04-14T15:18:47.507Z,10.93
2019-04-14T15:21:18.002Z,11.20
2019-04-14T15:23:48.442Z,12.70
2019-04-14T15:26:18.887Z,12.20
2019-04-14T15:28:49.665Z,12.80
2019-04-14T15:31:20.102Z,12.57
2019-04-14T15:33:50.575Z,12.13
2019-04-14T15:36:21.061Z,12.83
2019-04-14T15:38:51.890Z,12.87
2019-04-14T15:41:22.334Z,13.13
2019-04-14T15:43:53.209Z,13.53
2019-04-14T15:46:23.651Z,14.03
2019-04-14T15:48:54.110Z,14.63
2019-04-14T15:51:24.606Z,14.93
2019-04-14T15:53:55.055Z,15.27
2019-04-14T15:56:45.227Z,15.17
2019-04-14T15:59:34.595Z,16.57
2019-04-14T16:02:27.490Z,18.43
2019-04-14T16:05:15.906Z,16.63
2019-04-14T16:08:08.746Z,18.87
2019-04-14T16:10:44.354Z,17.80
2019-04-14T16:13:40.307Z,17.40
2019-04-14T16:16:21.032Z,18.17
2019-04-14T16:19:02.347Z,19.20
2019-04-14T16:21:33.168Z,17.83
2019-04-14T16:24:03.627Z,18.30
2019-04-14T16:27:05.704Z,18.87
2019-04-14T16:29:40.827Z,16.90
2019-04-14T16:32:25.270Z,19.43
2019-04-14T16:35:01.783Z,17.83
2019-04-14T16:37:34.009Z,18.50
2019-04-14T16:40:04.821Z,19.63
2019-04-14T16:42:35.941Z,20.57
2019-04-14T16:45:06.902Z,19.20
2019-04-14T16:47:37.653Z,18.23
2019-04-14T16:50:09.313Z,19.83
2019-04-14T16:52:46.394Z,19.23
2019-04-14T16:55:34.551Z,18.13
2019-04-14T16:58:36.200Z,18.40
2019-04-14T17:01:12.367Z,18.70
2019-04-14T17:03:42.877Z,22.23
2019-04-14T17:06:13.331Z,20.07
2019-04-14T17:08:44.133Z,19.27
2019-04-14T17:11:14.675Z,18.13
2019-04-14T17:13:50.642Z,18.97
2019-04-14T17:16:39.189Z,18.30
2019-04-14T17:19:14.233Z,19.30
2019-04-14T17:22:12.833Z,18.87
2019-04-14T17:25:02.479Z,19.17
2019-04-14T17:27:47.582Z,20.77
2019-04-14T17:30:32.117Z,20.77
2019-04-14T17:33:21.605Z,20.90
2019-04-14T17:36:14.189Z,20.67
2019-04-14T17:38:57.497Z,17.97
2019-04-14T17:41:59.591Z,21.07
2019-04-14T17:44:38.858Z,18.73
2019-04-14T17:47:34.380Z,21.57
2019-04-14T17:50:40.660Z,21.67
2019-04-14T17:53:17.778Z,20.00
2019-04-14T17:56:06.452Z,21.47
2019-04-14T17:58:49.823Z,20.87
2019-04-14T18:01:51.553Z,21.87
2019-04-14T18:04:47.038Z,20.70
2019-04-14T18:07:23.582Z,23.80
2019-04-14T18:10:02.292Z,25.10
2019-04-14T18:12:38.171Z,25.90
2019-04-14T18:15:28.087Z,20.93
2019-04-14T18:18:23.530Z,22.03
2019-04-14T18:20:57.522Z,22.93
2019-04-14T18:23:28.316Z,23.47
2019-04-14T18:25:58.800Z,24.13
2019-04-14T18:28:41.546Z,23.23
2019-04-14T18:31:31.345Z,22.63
2019-04-14T18:34:32.683Z,24.03
2019-04-14T18:37:28.376Z,23.17
2019-04-14T18:40:35.789Z,23.40
2019-04-14T18:43:25.684Z,22.53
2019-04-14T18:46:15.047Z,22.13
2019-04-14T18:48:53.634Z,25.73
2019-04-14T18:51:41.369Z,24.03
2019-04-14T18:54:30.222Z,20.27
2019-04-14T18:57:14.437Z,22.80
2019-04-14T18:59:58.715Z,22.67
2019-04-14T19:02:29.172Z,22.33
2019-04-14T19:04:59.652Z,21.13
2019-04-14T19:07:30.107Z,19.47
2019-04-14T19:10:02.259Z,23.93
2019-04-14T19:12:43.203Z,23.57
2019-04-14T19:15:24.208Z,21.30
2019-04-14T19:18:16.902Z,21.03
2019-04-14T19:20:52.355Z,21.50
2019-04-14T19:23:23.808Z,20.27
2019-04-14T19:25:54.248Z,18.70
2019-04-14T19:28:24.686Z,24.93
2019-04-14T19:30:55.204Z,21.87
2019-04-14T19:33:26.526Z,22.73
2019-04-14T19:35:57.326Z,20.43
2019-04-14T19:38:28.167Z,25.73
2019-04-14T19:40:58.735Z,24.70
2019-04-14T19:43:30.665Z,22.70
2019-04-14T19:46:01.192Z,22.43
2019-04-14T19:48:32.059Z,21.20
2019-04-14T19:51:05.843Z,27.87
2019-04-14T19:53:36.612Z,20.23
2019-04-14T19:56:07.326Z,21.73
2019-04-14T19:58:38.305Z,25.33
2019-04-14T20:01:08.751Z,22.43
2019-04-14T20:03:39.263Z,21.70
2019-04-14T20:06:09.790Z,24.63
2019-04-14T20:08:42.262Z,23.90
2019-04-14T20:11:12.737Z,23.80
2019-04-14T20:13:46.038Z,24.00
2019-04-14T20:16:34.569Z,26.43
2019-04-14T20:19:27.430Z,20.10
2019-04-14T20:22:10.882Z,20.77
2019-04-14T20:25:06.196Z,24.37
2019-04-14T20:28:01.727Z,21.70
2019-04-14T20:30:36.493Z,20.93
2019-04-14T20:33:06.930Z,20.27
2019-04-14T20:35:37.790Z,21.10
2019-04-14T20:38:08.604Z,20.20
2019-04-14T20:40:39.054Z,19.93
2019-04-14T20:43:10.070Z,21.97
2019-04-14T20:45:40.991Z,25.53
2019-04-14T20:48:11.814Z,23.30
2019-04-14T20:50:42.437Z,19.30
2019-04-14T20:53:12.918Z,20.50
2019-04-14T20:55:47.195Z,21.60
2019-04-14T20:58:15.503Z,23.23
2019-04-14T21:00:46.359Z,19.67
2019-04-14T21:03:36.286Z,24.67
2019-04-14T21:06:21.044Z,21.93
2019-04-14T21:09:16.686Z,22.57
2019-04-14T21:12:12.211Z,20.43
2019-04-14T21:15:01.620Z,25.87
2019-04-14T21:17:47.146Z,22.70
2019-04-14T21:20:25.950Z,26.20
2019-04-14T21:23:25.876Z,25.53
2019-04-14T21:26:04.463Z,23.97
2019-04-14T21:28:41.150Z,26.73
2019-04-14T21:31:16.831Z,23.07
2019-04-14T21:34:05.452Z,26.20
2019-04-14T21:36:57.969Z,22.83
2019-04-14T21:39:50.425Z,22.73
2019-04-14T21:42:21.303Z,21.87
2019-04-14T21:44:52.082Z,22.57
2019-04-14T21:47:22.639Z,23.40
2019-04-14T21:49:53.076Z,24.90
2019-04-14T21:52:44.332Z,24.43
2019-04-14T21:55:14.778Z,25.97
2019-04-14T21:58:02.798Z,24.97
2019-04-14T22:01:28.710Z,20.63
2019-04-14T22:04:21.767Z,23.40
2019-04-14T22:06:52.601Z,21.63
2019-04-14T22:09:28.810Z,25.07
2019-04-14T22:11:59.593Z,24.53
2019-04-14T22:14:30.035Z,25.07
2019-04-14T22:17:00.537Z,21.90
2019-04-14T22:19:31.321Z,24.33
2019-04-14T22:22:01.763Z,24.07
2019-04-14T22:24:32.607Z,20.63
2019-04-14T22:27:03.076Z,23.77
2019-04-14T22:29:33.821Z,20.67
2019-04-14T22:32:04.662Z,20.27
2019-04-14T22:34:35.397Z,21.57
2019-04-14T22:37:05.829Z,19.17
2019-04-14T22:39:39.126Z,19.43
2019-04-14T22:42:08.797Z,21.10
2019-04-14T22:44:39.309Z,23.37
2019-04-14T22:47:09.819Z,23.97
2019-04-14T22:49:40.644Z,22.70
2019-04-14T22:52:11.079Z,23.87
2019-04-14T22:54:41.562Z,23.43
2019-04-14T22:57:12.000Z,21.43
2019-04-14T22:59:42.467Z,22.73
2019-04-14T23:02:20.895Z,22.80
2019-04-14T23:05:16.479Z,22.87
2019-04-14T23:07:57.304Z,20.93
2019-04-14T23:10:51.002Z,19.70
2019-04-14T23:13:43.678Z,22.40
2019-04-14T23:16:33.072Z,18.40
2019-04-14T23:19:11.079Z,22.13
2019-04-14T23:21:45.786Z,23.00
2019-04-14T23:24:21.288Z,22.67
2019-04-14T23:26:53.222Z,21.07
2019-04-14T23:29:24.330Z,19.43
2019-04-14T23:31:54.814Z,21.93
2019-04-14T23:34:25.248Z,23.17
2019-04-14T23:36:55.981Z,22.27
2019-04-14T23:39:26.469Z,19.23
2019-04-14T23:41:57.778Z,19.43
2019-04-14T23:44:28.218Z,17.83
2019-04-14T23:46:59.033Z,19.40
2019-04-14T23:49:29.536Z,22.03
2019-04-14T23:51:59.998Z,20.77
2019-04-14T23:54:30.567Z,23.80
2019-04-14T23:57:05.872Z,20.97
2019-04-14T23:59:33.921Z,21.13
